createdAt,value
2018-06-24T00:01:24.820Z,2.40
2018-06-24T00:03:53.155Z,2.00
2018-06-24T00:06:21.524Z,2.20
2018-06-24T00:08:49.863Z,2.20
2018-06-24T00:11:18.228Z,2.30
2018-06-24T00:13:46.655Z,2.23
2018-06-24T00:16:14.995Z,2.30
2018-06-24T00:18:43.322Z,2.33
2018-06-24T00:21:11.696Z,2.07
2018-06-24T00:23:39.780Z,2.30
2018-06-24T00:26:08.123Z,2.10
2018-06-24T00:28:36.487Z,2.03
2018-06-24T00:31:04.811Z,2.00
2018-06-24T00:33:33.188Z,2.27
2018-06-24T00:36:01.524Z,2.17
2018-06-24T00:38:29.891Z,2.47
2018-06-24T00:40:58.228Z,1.80
2018-06-24T00:43:26.584Z,2.30
2018-06-24T00:45:54.912Z,2.03
2018-06-24T00:48:23.275Z,2.33
2018-06-24T00:50:51.599Z,2.70
2018-06-24T00:53:20.003Z,2.13
2018-06-24T00:55:48.063Z,2.20
2018-06-24T00:58:16.419Z,2.50
2018-06-24T01:00:44.752Z,2.60
2018-06-24T01:03:13.104Z,1.97
2018-06-24T01:05:41.432Z,2.30
2018-06-24T01:08:09.827Z,2.63
2018-06-24T01:10:38.156Z,2.67
2018-06-24T01:13:06.554Z,2.47
2018-06-24T01:15:34.871Z,2.53
2018-06-24T01:18:03.252Z,2.60
2018-06-24T01:20:31.605Z,2.57
2018-06-24T01:22:59.960Z,2.60
2018-06-24T01:25:28.284Z,2.23
2018-06-24T01:27:56.646Z,2.60
2018-06-24T01:30:24.971Z,2.33
2018-06-24T01:32:53.343Z,2.40
2018-06-24T01:35:21.676Z,2.63
2018-06-24T01:37:50.033Z,2.80
2018-06-24T01:40:18.087Z,2.43
2018-06-24T01:42:46.469Z,2.70
2018-06-24T01:45:14.547Z,2.60
2018-06-24T01:47:42.617Z,2.40
2018-06-24T01:50:10.937Z,2.40
2018-06-24T01:52:39.363Z,2.47
2018-06-24T01:55:07.683Z,2.77
2018-06-24T01:57:36.025Z,2.43
2018-06-24T02:00:04.636Z,2.97
2018-06-24T02:02:32.975Z,3.13
2018-06-24T02:05:01.335Z,3.00
2018-06-24T02:07:29.691Z,2.60
2018-06-24T02:09:58.032Z,3.00
2018-06-24T02:12:26.176Z,2.83
2018-06-24T02:14:54.516Z,2.70
2018-06-24T02:17:22.861Z,2.97
2018-06-24T02:19:51.207Z,2.97
2018-06-24T02:22:19.519Z,3.00
2018-06-24T02:24:47.866Z,3.23
2018-06-24T02:27:16.183Z,3.20
2018-06-24T02:29:44.254Z,2.90
2018-06-24T02:32:12.311Z,3.13
2018-06-24T02:34:40.651Z,3.30
2018-06-24T02:37:08.969Z,3.30
2018-06-24T02:39:37.325Z,3.10
2018-06-24T02:42:05.809Z,3.63
2018-06-24T02:44:34.175Z,3.20
2018-06-24T02:47:02.546Z,3.57
2018-06-24T02:49:30.857Z,3.50
2018-06-24T02:51:59.180Z,3.57
2018-06-24T02:54:27.530Z,3.37
2018-06-24T02:56:55.847Z,3.10
2018-06-24T02:59:24.183Z,3.00
2018-06-24T03:01:52.514Z,3.30
2018-06-24T03:04:20.851Z,3.13
2018-06-24T03:06:48.907Z,3.30
2018-06-24T03:09:17.248Z,3.37
2018-06-24T03:11:45.564Z,3.50
2018-06-24T03:14:13.964Z,3.50
2018-06-24T03:16:42.316Z,3.57
2018-06-24T03:19:10.672Z,3.60
2018-06-24T03:21:39.070Z,3.50
2018-06-24T03:24:07.409Z,3.27
2018-06-24T03:26:35.728Z,3.20
2018-06-24T03:29:04.116Z,3.37
2018-06-24T03:31:32.441Z,3.27
2018-06-24T03:34:00.835Z,3.53
2018-06-24T03:36:29.189Z,3.23
2018-06-24T03:38:57.549Z,3.67
2018-06-24T03:41:25.871Z,3.30
2018-06-24T03:43:54.259Z,3.73
2018-06-24T03:46:22.582Z,3.87
2018-06-24T03:48:50.945Z,3.37
2018-06-24T03:51:19.294Z,3.57
2018-06-24T03:53:47.651Z,3.33
2018-06-24T03:56:16.002Z,3.67
2018-06-24T03:58:44.351Z,3.40
2018-06-24T04:01:12.736Z,3.30
2018-06-24T04:03:41.063Z,3.40
2018-06-24T04:06:09.420Z,3.67
2018-06-24T04:08:37.475Z,4.00
2018-06-24T04:11:05.885Z,3.67
2018-06-24T04:13:34.256Z,3.83
2018-06-24T04:16:04.908Z,3.40
2018-06-24T04:18:38.535Z,3.50
2018-06-24T04:21:06.892Z,3.03
2018-06-24T04:23:35.204Z,3.77
2018-06-24T04:26:03.599Z,3.67
2018-06-24T04:28:31.930Z,3.90
2018-06-24T04:31:00.340Z,3.50
2018-06-24T04:33:28.656Z,3.20
2018-06-24T04:35:57.000Z,3.40
2018-06-24T04:38:25.320Z,3.30
2018-06-24T04:40:53.663Z,3.40
2018-06-24T04:43:21.992Z,3.83
2018-06-24T04:45:50.368Z,3.73
2018-06-24T04:48:18.679Z,3.50
2018-06-24T04:50:47.037Z,3.27
2018-06-24T04:53:15.350Z,3.83
2018-06-24T04:55:43.700Z,4.43
2018-06-24T04:58:12.023Z,3.50
2018-06-24T05:00:40.391Z,4.10
2018-06-24T05:03:08.742Z,3.83
2018-06-24T05:05:37.088Z,3.40
2018-06-24T05:08:05.755Z,3.73
2018-06-24T05:10:34.143Z,4.20
2018-06-24T05:13:02.506Z,3.93
2018-06-24T05:15:30.856Z,3.70
2018-06-24T05:17:59.201Z,4.33
2018-06-24T05:20:27.563Z,3.83
2018-06-24T05:22:55.618Z,3.53
2018-06-24T05:25:24.004Z,3.87
2018-06-24T05:27:52.330Z,3.90
2018-06-24T05:30:20.696Z,3.60
2018-06-24T05:32:49.016Z,3.77
2018-06-24T05:35:17.372Z,3.90
2018-06-24T05:37:45.714Z,4.13
2018-06-24T05:40:14.090Z,3.60
2018-06-24T05:42:42.431Z,3.53
2018-06-24T05:45:10.779Z,4.03
2018-06-24T05:47:39.099Z,3.83
2018-06-24T05:50:07.468Z,3.93
2018-06-24T05:52:35.791Z,4.00
2018-06-24T05:55:03.886Z,3.93
2018-06-24T05:57:32.230Z,3.43
2018-06-24T06:00:00.548Z,4.67
2018-06-24T06:02:28.895Z,4.20
2018-06-24T06:04:56.947Z,3.60
2018-06-24T06:07:25.287Z,3.70
2018-06-24T06:09:53.603Z,3.80
2018-06-24T06:12:21.976Z,3.73
2018-06-24T06:14:50.368Z,4.10
2018-06-24T06:17:18.715Z,4.00
2018-06-24T06:19:47.047Z,4.10
2018-06-24T06:22:15.131Z,3.83
2018-06-24T06:24:43.467Z,4.10
2018-06-24T06:27:11.823Z,4.03
2018-06-24T06:29:40.152Z,4.60
2018-06-24T06:32:08.231Z,4.30
2018-06-24T06:34:36.339Z,4.73
2018-06-24T06:37:05.146Z,4.17
2018-06-24T06:39:34.196Z,4.00
2018-06-24T06:42:03.620Z,4.40
2018-06-24T06:44:32.424Z,4.43
2018-06-24T06:47:00.772Z,4.23
2018-06-24T06:49:28.834Z,4.00
2018-06-24T06:51:56.915Z,4.20
2018-06-24T06:54:25.042Z,4.20
2018-06-24T06:56:53.351Z,4.17
2018-06-24T06:59:21.423Z,4.43
2018-06-24T07:01:49.765Z,4.37
2018-06-24T07:04:18.083Z,4.40
2018-06-24T07:06:46.154Z,4.33
2018-06-24T07:09:14.219Z,4.17
2018-06-24T07:11:42.560Z,4.03
2018-06-24T07:14:10.914Z,4.57
2018-06-24T07:16:39.286Z,4.30
2018-06-24T07:19:07.596Z,3.90
2018-06-24T07:21:35.966Z,4.10
2018-06-24T07:24:04.306Z,3.90
2018-06-24T07:26:32.393Z,3.83
2018-06-24T07:29:00.966Z,3.93
2018-06-24T07:31:29.227Z,4.03
2018-06-24T07:33:57.554Z,3.77
2018-06-24T07:36:25.920Z,3.83
2018-06-24T07:38:54.257Z,4.00
2018-06-24T07:41:22.875Z,3.73
2018-06-24T07:43:51.203Z,4.00
2018-06-24T07:46:19.579Z,3.87
2018-06-24T07:48:47.956Z,4.20
2018-06-24T07:51:16.297Z,4.10
2018-06-24T07:53:44.657Z,3.73
2018-06-24T07:56:12.732Z,3.93
2018-06-24T07:58:40.813Z,4.07
2018-06-24T08:01:09.128Z,4.07
2018-06-24T08:03:37.474Z,3.43
2018-06-24T08:06:06.835Z,3.30
2018-06-24T08:08:35.175Z,3.90
2018-06-24T08:11:03.521Z,3.30
2018-06-24T08:13:31.900Z,3.13
2018-06-24T08:15:59.946Z,3.60
2018-06-24T08:18:28.288Z,3.90
2018-06-24T08:20:56.599Z,3.03
2018-06-24T08:23:24.948Z,3.63
2018-06-24T08:25:53.276Z,3.50
2018-06-24T08:28:21.721Z,3.53
2018-06-24T08:30:50.119Z,3.70
2018-06-24T08:33:18.510Z,3.40
2018-06-24T08:35:46.917Z,3.47
2018-06-24T08:38:15.280Z,3.57
2018-06-24T08:40:43.340Z,3.47
2018-06-24T08:43:11.691Z,3.33
2018-06-24T08:45:40.031Z,3.00
2018-06-24T08:48:08.404Z,2.80
2018-06-24T08:50:36.722Z,2.93
2018-06-24T08:53:05.111Z,2.90
2018-06-24T08:55:33.579Z,3.00
2018-06-24T08:58:01.934Z,3.10
2018-06-24T09:00:30.311Z,3.27
2018-06-24T09:02:58.632Z,2.93
2018-06-24T09:05:26.948Z,3.40
2018-06-24T09:07:55.037Z,3.50
2018-06-24T09:10:23.364Z,3.93
2018-06-24T09:12:51.760Z,3.80
2018-06-24T09:15:20.073Z,3.40
2018-06-24T09:17:48.420Z,3.67
2018-06-24T09:20:20.828Z,3.33
2018-06-24T09:22:49.266Z,3.17
2018-06-24T09:25:17.853Z,3.73
2018-06-24T09:27:46.242Z,3.37
2018-06-24T09:30:16.544Z,3.60
2018-06-24T09:32:44.932Z,3.47
2018-06-24T09:35:13.328Z,3.47
2018-06-24T09:37:41.706Z,3.43
2018-06-24T09:40:11.706Z,3.30
2018-06-24T09:42:40.912Z,3.07
2018-06-24T09:45:10.769Z,3.00
2018-06-24T09:47:39.584Z,3.00
2018-06-24T09:50:08.632Z,2.93
2018-06-24T09:52:37.664Z,3.00
2018-06-24T09:55:06.090Z,3.07
2018-06-24T09:57:34.474Z,3.20
2018-06-24T10:00:04.797Z,2.57
2018-06-24T10:02:34.165Z,2.70
2018-06-24T10:05:03.242Z,2.63
2018-06-24T10:07:31.564Z,2.70
2018-06-24T10:09:59.934Z,2.60
2018-06-24T10:12:28.270Z,2.50
2018-06-24T10:14:56.624Z,2.73
2018-06-24T10:17:24.956Z,2.73
2018-06-24T10:19:53.308Z,3.00
2018-06-24T10:22:21.869Z,2.13
2018-06-24T10:24:50.221Z,2.40
2018-06-24T10:27:18.595Z,2.70
2018-06-24T10:29:46.937Z,2.10
2018-06-24T10:32:15.272Z,2.47
2018-06-24T10:34:44.447Z,2.57
2018-06-24T10:37:12.763Z,2.90
2018-06-24T10:39:41.136Z,2.30
2018-06-24T10:42:09.464Z,2.30
2018-06-24T10:44:37.804Z,2.20
2018-06-24T10:47:05.863Z,2.40
2018-06-24T10:49:34.240Z,2.57
2018-06-24T10:52:02.565Z,2.90
2018-06-24T10:54:30.908Z,2.90
2018-06-24T10:56:59.219Z,2.80
2018-06-24T10:59:27.566Z,2.77
2018-06-24T11:01:55.916Z,2.83
2018-06-24T11:04:24.276Z,2.80
2018-06-24T11:06:52.607Z,3.20
2018-06-24T11:09:20.759Z,3.30
2018-06-24T11:11:49.086Z,3.83
2018-06-24T11:14:17.460Z,3.27
2018-06-24T11:16:45.800Z,3.60
2018-06-24T11:19:14.135Z,3.70
2018-06-24T11:21:42.524Z,3.90
2018-06-24T11:24:10.838Z,3.70
2018-06-24T11:26:39.157Z,3.60
2018-06-24T11:29:07.478Z,3.57
2018-06-24T11:31:35.835Z,3.73
2018-06-24T11:34:04.224Z,3.87
2018-06-24T11:36:32.560Z,3.90
2018-06-24T11:39:00.625Z,3.33
2018-06-24T11:41:28.968Z,3.70
2018-06-24T11:43:57.287Z,3.40
2018-06-24T11:46:25.379Z,3.30
2018-06-24T11:48:53.908Z,3.77
2018-06-24T11:51:22.253Z,3.70
2018-06-24T11:53:50.561Z,2.90
2018-06-24T11:56:18.904Z,3.40
2018-06-24T11:58:47.215Z,3.60
2018-06-24T12:01:15.548Z,3.60
2018-06-24T12:03:43.871Z,3.07
2018-06-24T12:06:12.208Z,2.77
2018-06-24T12:08:40.548Z,3.23
2018-06-24T12:11:08.899Z,3.57
2018-06-24T12:13:37.240Z,3.17
2018-06-24T12:16:05.666Z,3.37
2018-06-24T12:18:34.004Z,3.50
2018-06-24T12:21:02.345Z,4.07
2018-06-24T12:23:30.664Z,3.70
2018-06-24T12:25:59.011Z,3.80
2018-06-24T12:28:27.071Z,3.67
2018-06-24T12:30:55.424Z,3.33
2018-06-24T12:33:23.732Z,3.20
2018-06-24T12:35:52.240Z,3.57
2018-06-24T12:38:20.589Z,3.20
2018-06-24T12:40:48.937Z,3.30
2018-06-24T12:43:17.244Z,3.27
2018-06-24T12:45:45.595Z,3.40
2018-06-24T12:48:13.905Z,3.27
2018-06-24T12:50:42.248Z,3.00
2018-06-24T12:53:10.563Z,2.60
2018-06-24T12:55:38.912Z,2.60
2018-06-24T12:58:07.262Z,2.50
2018-06-24T13:00:36.226Z,2.10
2018-06-24T13:03:03.988Z,2.20
2018-06-24T13:05:32.406Z,1.80
2018-06-24T13:08:00.676Z,1.87
2018-06-24T13:10:29.035Z,1.87
2018-06-24T13:12:57.111Z,1.90
2018-06-24T13:15:25.207Z,2.13
2018-06-24T13:17:53.563Z,1.80
2018-06-24T13:20:21.889Z,1.63
2018-06-24T13:22:50.234Z,1.50
2018-06-24T13:25:18.564Z,1.80
2018-06-24T13:27:46.927Z,1.70
2018-06-24T13:30:15.244Z,1.90
2018-06-24T13:32:44.356Z,1.90
2018-06-24T13:35:12.685Z,1.53
2018-06-24T13:37:41.036Z,1.37
2018-06-24T13:40:09.404Z,1.50
2018-06-24T13:42:37.740Z,1.10
2018-06-24T13:45:07.163Z,1.40
2018-06-24T13:47:35.240Z,1.50
2018-06-24T13:50:03.589Z,1.47
2018-06-24T13:52:31.939Z,1.40
2018-06-24T13:55:00.243Z,1.50
2018-06-24T13:57:28.585Z,1.50
2018-06-24T13:59:56.896Z,1.47
2018-06-24T14:02:25.232Z,1.50
2018-06-24T14:04:53.541Z,1.90
2018-06-24T14:07:21.922Z,1.80
2018-06-24T14:09:50.244Z,1.80
2018-06-24T14:12:18.579Z,1.63
2018-06-24T14:14:46.970Z,2.00
2018-06-24T14:17:15.305Z,1.80
2018-06-24T14:19:43.620Z,2.30
2018-06-24T14:22:11.968Z,1.90
2018-06-24T14:24:40.284Z,2.13
2018-06-24T14:27:08.626Z,2.03
2018-06-24T14:29:36.962Z,2.10
2018-06-24T14:32:05.380Z,2.00
2018-06-24T14:34:33.692Z,1.90
2018-06-24T14:37:02.205Z,2.30
2018-06-24T14:39:30.547Z,1.80
2018-06-24T14:41:58.876Z,1.83
2018-06-24T14:44:27.244Z,2.20
2018-06-24T14:46:55.553Z,1.90
2018-06-24T14:49:23.995Z,2.33
2018-06-24T14:51:52.311Z,2.10
2018-06-24T14:54:20.696Z,1.90
2018-06-24T14:56:49.047Z,2.17
2018-06-24T14:59:17.131Z,2.50
2018-06-24T15:01:45.223Z,2.37
2018-06-24T15:04:13.559Z,1.97
2018-06-24T15:06:41.872Z,2.10
2018-06-24T15:09:11.700Z,2.30
2018-06-24T15:11:40.107Z,2.40
2018-06-24T15:14:08.639Z,2.40
2018-06-24T15:16:37.298Z,2.33
2018-06-24T15:19:06.019Z,2.80
2018-06-24T15:21:34.364Z,2.43
2018-06-24T15:24:02.705Z,2.43
2018-06-24T15:26:31.051Z,2.63
2018-06-24T15:28:59.405Z,2.60
2018-06-24T15:31:27.731Z,2.83
2018-06-24T15:33:56.108Z,2.20
2018-06-24T15:36:24.424Z,2.30
2018-06-24T15:38:52.771Z,2.40
2018-06-24T15:41:21.167Z,2.20
2018-06-24T15:43:49.504Z,2.33
2018-06-24T15:46:17.872Z,2.00
2018-06-24T15:48:46.460Z,2.33
2018-06-24T15:51:16.521Z,2.50
2018-06-24T15:53:46.529Z,2.40
2018-06-24T15:56:15.603Z,2.50
2018-06-24T15:58:44.618Z,2.47
2018-06-24T16:01:13.486Z,2.47
2018-06-24T16:03:41.868Z,2.50
2018-06-24T16:06:10.239Z,2.47
2018-06-24T16:08:38.283Z,2.80
2018-06-24T16:11:06.853Z,2.97
2018-06-24T16:13:35.236Z,3.87
2018-06-24T16:16:03.595Z,4.27
2018-06-24T16:18:31.911Z,4.53
2018-06-24T16:21:00.538Z,3.50
2018-06-24T16:23:29.396Z,3.07
2018-06-24T16:25:57.627Z,6.23
2018-06-24T16:28:25.947Z,6.67
2018-06-24T16:30:54.303Z,5.90
2018-06-24T16:33:24.291Z,3.20
2018-06-24T16:35:54.183Z,3.00
2018-06-24T16:38:24.619Z,2.63
2018-06-24T16:40:54.831Z,2.40
2018-06-24T16:43:25.198Z,2.80
2018-06-24T16:45:55.241Z,3.00
2018-06-24T16:48:23.663Z,2.40
2018-06-24T16:50:51.984Z,2.80
2018-06-24T16:53:20.393Z,2.80
2018-06-24T16:55:48.732Z,2.60
2018-06-24T16:58:17.076Z,2.90
2018-06-24T17:00:45.392Z,2.60
2018-06-24T17:03:13.750Z,2.90
2018-06-24T17:05:42.079Z,3.00
2018-06-24T17:08:10.415Z,2.67
2018-06-24T17:10:38.735Z,2.90
2018-06-24T17:13:07.131Z,2.60
2018-06-24T17:15:35.192Z,3.00
2018-06-24T17:18:03.542Z,2.80
2018-06-24T17:20:31.931Z,2.60
2018-06-24T17:23:00.014Z,2.83
2018-06-24T17:25:28.359Z,2.63
2018-06-24T17:27:56.709Z,2.77
2018-06-24T17:30:25.025Z,2.97
2018-06-24T17:32:53.382Z,2.77
2018-06-24T17:35:22.193Z,2.77
2018-06-24T17:37:50.598Z,3.17
2018-06-24T17:40:19.344Z,2.57
2018-06-24T17:42:48.914Z,2.40
2018-06-24T17:45:17.744Z,2.80
2018-06-24T17:47:46.335Z,2.90
2018-06-24T17:50:14.651Z,3.17
2018-06-24T17:52:43.060Z,3.00
2018-06-24T17:55:11.488Z,3.07
2018-06-24T17:57:39.836Z,3.50
2018-06-24T18:00:08.188Z,3.00
2018-06-24T18:02:36.544Z,3.00
2018-06-24T18:05:05.198Z,2.53
2018-06-24T18:07:33.656Z,3.10
2018-06-24T18:10:02.282Z,3.23
2018-06-24T18:12:30.738Z,3.40
2018-06-24T18:14:59.434Z,2.83
2018-06-24T18:17:27.862Z,2.40
2018-06-24T18:19:56.519Z,2.77
2018-06-24T18:22:24.950Z,3.10
2018-06-24T18:24:53.295Z,2.77
2018-06-24T18:27:21.603Z,2.77
2018-06-24T18:29:49.944Z,2.70
2018-06-24T18:32:18.371Z,3.03
2018-06-24T18:34:46.682Z,3.20
2018-06-24T18:37:15.012Z,3.00
2018-06-24T18:39:43.103Z,3.30
2018-06-24T18:42:11.445Z,2.60
2018-06-24T18:44:39.788Z,2.83
2018-06-24T18:47:08.103Z,3.10
2018-06-24T18:49:36.445Z,3.10
2018-06-24T18:52:04.788Z,2.93
2018-06-24T18:54:34.991Z,3.07
2018-06-24T18:57:03.428Z,2.90
2018-06-24T18:59:31.780Z,3.13
2018-06-24T19:02:01.986Z,2.77
2018-06-24T19:04:30.074Z,3.07
2018-06-24T19:06:58.400Z,2.93
2018-06-24T19:09:26.486Z,3.17
2018-06-24T19:11:54.808Z,3.27
2018-06-24T19:14:23.182Z,3.20
2018-06-24T19:16:51.500Z,3.10
2018-06-24T19:19:19.858Z,2.93
2018-06-24T19:21:48.227Z,3.40
2018-06-24T19:24:16.616Z,3.37
2018-06-24T19:26:44.932Z,3.10
2018-06-24T19:29:13.284Z,3.10
2018-06-24T19:31:41.624Z,3.10
2018-06-24T19:34:10.042Z,2.70
2018-06-24T19:36:38.383Z,3.10
2018-06-24T19:39:09.080Z,3.03
2018-06-24T19:41:37.428Z,2.87
2018-06-24T19:44:05.796Z,3.10
2018-06-24T19:46:34.113Z,3.10
2018-06-24T19:49:02.455Z,2.70
2018-06-24T19:51:30.771Z,2.90
2018-06-24T19:53:59.167Z,3.03
2018-06-24T19:56:27.484Z,3.07
2018-06-24T19:58:55.819Z,2.83
2018-06-24T20:01:24.136Z,2.93
2018-06-24T20:03:52.499Z,3.30
2018-06-24T20:06:20.534Z,3.13
2018-06-24T20:08:48.880Z,2.57
2018-06-24T20:11:17.220Z,2.80
2018-06-24T20:13:45.291Z,2.80
2018-06-24T20:16:13.627Z,2.90
2018-06-24T20:18:41.944Z,2.90
2018-06-24T20:21:10.297Z,3.13
2018-06-24T20:23:38.614Z,2.43
2018-06-24T20:26:06.679Z,2.93
2018-06-24T20:28:34.731Z,2.70
2018-06-24T20:31:03.084Z,2.27
2018-06-24T20:33:31.396Z,2.27
2018-06-24T20:35:59.740Z,2.10
2018-06-24T20:38:28.067Z,1.97
2018-06-24T20:40:56.150Z,2.00
2018-06-24T20:43:24.196Z,1.67
2018-06-24T20:45:52.544Z,1.63
2018-06-24T20:48:21.265Z,1.73
2018-06-24T20:50:49.668Z,1.90
2018-06-24T20:53:17.991Z,1.53
2018-06-24T20:55:46.735Z,1.93
2018-06-24T20:58:14.830Z,1.80
2018-06-24T21:00:43.203Z,1.80
2018-06-24T21:03:11.521Z,1.60
2018-06-24T21:05:39.864Z,1.67
2018-06-24T21:08:08.176Z,2.07
2018-06-24T21:10:36.599Z,2.00
2018-06-24T21:13:05.233Z,2.33
2018-06-24T21:15:33.579Z,2.10
2018-06-24T21:18:01.892Z,2.17
2018-06-24T21:20:30.945Z,1.87
2018-06-24T21:23:00.072Z,1.90
2018-06-24T21:25:28.437Z,2.07
2018-06-24T21:27:56.743Z,2.00
2018-06-24T21:30:25.085Z,2.13
2018-06-24T21:32:53.391Z,2.23
2018-06-24T21:35:21.734Z,2.30
2018-06-24T21:37:49.789Z,2.30
2018-06-24T21:40:18.124Z,2.20
2018-06-24T21:42:46.436Z,2.57
2018-06-24T21:45:14.783Z,2.53
2018-06-24T21:47:43.096Z,2.80
2018-06-24T21:50:11.436Z,2.70
2018-06-24T21:52:39.751Z,2.73
2018-06-24T21:55:08.098Z,2.60
2018-06-24T21:57:36.442Z,3.00
2018-06-24T22:00:07.163Z,2.93
2018-06-24T22:02:35.226Z,2.60
2018-06-24T22:05:03.289Z,2.90
2018-06-24T22:07:31.695Z,2.33
2018-06-24T22:10:00.023Z,2.90
2018-06-24T22:12:28.399Z,3.00
2018-06-24T22:14:56.708Z,3.23
2018-06-24T22:17:25.395Z,2.90
2018-06-24T22:19:53.695Z,3.00
2018-06-24T22:22:22.071Z,2.93
2018-06-24T22:24:50.127Z,3.00
2018-06-24T22:27:18.455Z,2.73
2018-06-24T22:29:46.751Z,2.77
2018-06-24T22:32:15.104Z,3.27
2018-06-24T22:34:43.471Z,3.53
2018-06-24T22:37:11.919Z,3.23
2018-06-24T22:39:40.228Z,3.43
2018-06-24T22:42:08.572Z,3.93
2018-06-24T22:44:36.881Z,3.20
2018-06-24T22:47:05.451Z,3.30
2018-06-24T22:49:33.494Z,3.00
2018-06-24T22:52:01.827Z,3.30
2018-06-24T22:54:30.130Z,3.00
2018-06-24T22:56:58.504Z,3.23
2018-06-24T22:59:38.191Z,3.20
2018-06-24T23:02:06.620Z,3.10
2018-06-24T23:04:35.100Z,3.63
2018-06-24T23:07:03.470Z,3.87
2018-06-24T23:09:31.975Z,3.80
2018-06-24T23:12:00.355Z,3.90
2018-06-24T23:14:28.916Z,3.70
2018-06-24T23:16:57.363Z,3.47
2018-06-24T23:19:25.992Z,4.07
2018-06-24T23:21:54.831Z,3.30
2018-06-24T23:24:23.679Z,3.20
2018-06-24T23:26:52.024Z,3.50
2018-06-24T23:29:20.066Z,3.27
2018-06-24T23:31:48.405Z,3.20
2018-06-24T23:34:16.710Z,3.67
2018-06-24T23:36:45.036Z,3.00
2018-06-24T23:39:13.071Z,3.03
2018-06-24T23:41:41.424Z,3.23
2018-06-24T23:44:09.731Z,3.43
2018-06-24T23:46:38.044Z,3.17
2018-06-24T23:49:06.379Z,3.47
2018-06-24T23:51:34.684Z,3.80
2018-06-24T23:54:02.780Z,4.13
2018-06-24T23:56:31.090Z,3.80
2018-06-24T23:58:59.437Z,3.83
